Leon Valley, Texas
Current Conditions -  °F | °C
As of 9:58 PM on Tuesday 21 Oct 2014 (Local Time) from KSKF Reporting Station
Few Clouds Few Clouds  
Wind Chill: 74°   Ceiling: Unl
Heat Index: 74°   Visibility: 10mi
Dew Point: 47°   Wind: 9mph
Humidity: 38%   Direction: 70°ENE
Pressure: 30.01"   Gusts: NA
Location:  29.5262°N, 98.7174°W
Report Text: KSKF 220258Z AUTO 07008KT 10SM FEW240 24/09 A3001 RMK AO2 SLP157 T02350085 52016 $
Loading
Personal Weather Stations






























Interactive Weather Map
Tropical Storm Tracking
New forecast layout! Learn more

10-Day Weather Forecast

Advertisements
Track Severe Weather on mobile